createdAt,value
2023-03-29T00:00:49.661Z,3.88
2023-03-29T00:03:17.046Z,3.67
2023-03-29T00:05:44.738Z,3.66
2023-03-29T00:08:14.543Z,3.70
2023-03-29T00:10:42.033Z,3.69
2023-03-29T00:13:08.912Z,3.63
2023-03-29T00:15:35.557Z,3.56
2023-03-29T00:18:02.151Z,3.77
2023-03-29T00:20:28.985Z,3.75
2023-03-29T00:22:55.690Z,3.76
2023-03-29T00:25:22.157Z,3.77
2023-03-29T00:27:48.828Z,3.80
2023-03-29T00:30:15.901Z,4.01
2023-03-29T00:32:42.706Z,3.89
2023-03-29T00:35:09.792Z,4.04
2023-03-29T00:37:36.397Z,3.95
2023-03-29T00:40:04.953Z,3.87
2023-03-29T00:42:31.478Z,3.99
2023-03-29T00:45:03.831Z,3.96
2023-03-29T00:47:43.706Z,3.93
2023-03-29T00:50:22.306Z,4.02
2023-03-29T00:52:51.402Z,4.06
2023-03-29T00:55:19.546Z,4.03
2023-03-29T00:57:46.818Z,3.97
2023-03-29T01:00:18.086Z,3.91
2023-03-29T01:02:44.632Z,3.92
2023-03-29T01:05:14.490Z,3.97
2023-03-29T01:08:00.909Z,3.91
2023-03-29T01:10:40.084Z,3.98
2023-03-29T01:13:11.847Z,3.98
2023-03-29T01:15:39.704Z,3.83
2023-03-29T01:18:06.500Z,3.86
2023-03-29T01:20:43.945Z,3.78
2023-03-29T01:23:22.185Z,3.68
2023-03-29T01:26:11.010Z,3.68
2023-03-29T01:28:39.908Z,3.57
2023-03-29T01:31:09.139Z,3.62
2023-03-29T01:33:42.649Z,3.69
2023-03-29T01:36:19.077Z,3.61
2023-03-29T01:38:59.890Z,3.56
2023-03-29T01:41:34.478Z,3.55
2023-03-29T01:44:19.548Z,3.53
2023-03-29T01:46:47.490Z,3.61
2023-03-29T01:49:13.809Z,3.59
2023-03-29T01:51:51.507Z,3.52
2023-03-29T01:54:32.700Z,3.54
2023-03-29T01:56:59.240Z,3.42
2023-03-29T01:59:29.136Z,3.43
2023-03-29T02:01:58.315Z,3.45
2023-03-29T02:04:28.290Z,3.46
2023-03-29T02:06:55.692Z,3.44
2023-03-29T02:09:22.339Z,3.43
2023-03-29T02:11:49.105Z,3.40
2023-03-29T02:14:15.609Z,3.26
2023-03-29T02:16:42.075Z,3.26
2023-03-29T02:19:08.743Z,3.16
2023-03-29T02:21:41.595Z,3.07
2023-03-29T02:24:09.158Z,2.99
2023-03-29T02:26:36.204Z,3.01
2023-03-29T02:29:02.701Z,2.96
2023-03-29T02:31:37.173Z,2.85
2023-03-29T02:34:24.477Z,2.77
2023-03-29T02:36:58.851Z,2.82
2023-03-29T02:39:26.287Z,2.88
2023-03-29T02:41:52.758Z,2.76
2023-03-29T02:44:24.099Z,2.68
2023-03-29T02:46:51.324Z,2.72
2023-03-29T02:49:17.859Z,2.72
2023-03-29T02:51:44.648Z,2.77
2023-03-29T02:54:15.562Z,2.78
2023-03-29T02:56:49.959Z,2.79
2023-03-29T02:59:17.629Z,2.82
2023-03-29T03:01:44.685Z,2.79
2023-03-29T03:04:11.626Z,2.79
2023-03-29T03:06:38.106Z,2.81
2023-03-29T03:09:06.086Z,2.77
2023-03-29T03:11:33.311Z,2.87
2023-03-29T03:13:59.924Z,2.89
2023-03-29T03:16:26.454Z,2.87
2023-03-29T03:18:54.782Z,2.89
2023-03-29T03:21:22.086Z,2.88
2023-03-29T03:23:48.615Z,2.89
2023-03-29T03:26:15.817Z,2.90
2023-03-29T03:28:42.293Z,2.86
2023-03-29T03:31:08.826Z,2.85
2023-03-29T03:33:35.756Z,2.82
2023-03-29T03:36:05.488Z,2.81
2023-03-29T03:38:32.701Z,2.86
2023-03-29T03:40:59.544Z,2.79
2023-03-29T03:43:26.138Z,2.77
2023-03-29T03:45:52.703Z,2.76
2023-03-29T03:48:19.247Z,2.79
2023-03-29T03:50:49.789Z,2.78
2023-03-29T03:53:16.269Z,2.82
2023-03-29T03:55:42.851Z,2.83
2023-03-29T03:58:09.335Z,2.82
2023-03-29T04:00:35.791Z,2.86
2023-03-29T04:03:02.421Z,2.87
2023-03-29T04:05:28.993Z,2.88
2023-03-29T04:07:56.056Z,2.91
2023-03-29T04:10:22.610Z,2.93
2023-03-29T04:12:49.063Z,2.94
2023-03-29T04:15:17.772Z,2.86
2023-03-29T04:17:44.296Z,2.93
2023-03-29T04:20:13.762Z,2.93
2023-03-29T04:22:40.309Z,2.98
2023-03-29T04:25:08.193Z,2.93
2023-03-29T04:27:34.666Z,2.93
2023-03-29T04:30:01.492Z,2.97
2023-03-29T04:32:28.147Z,2.96
2023-03-29T04:34:54.641Z,3.04
2023-03-29T04:37:22.326Z,2.98
2023-03-29T04:39:49.898Z,2.98
2023-03-29T04:42:16.951Z,3.07
2023-03-29T04:44:43.770Z,3.08
2023-03-29T04:47:13.633Z,3.08
2023-03-29T04:49:40.295Z,3.10
2023-03-29T04:52:07.470Z,3.05
2023-03-29T04:54:34.006Z,3.09
2023-03-29T04:57:00.604Z,3.13
2023-03-29T04:59:27.112Z,3.11
2023-03-29T05:01:54.517Z,3.09
2023-03-29T05:04:21.148Z,3.16
2023-03-29T05:06:48.954Z,3.13
2023-03-29T05:09:15.825Z,3.13
2023-03-29T05:11:42.278Z,3.23
2023-03-29T05:14:09.329Z,3.17
2023-03-29T05:16:38.002Z,3.18
2023-03-29T05:19:04.635Z,3.21
2023-03-29T05:21:31.125Z,3.33
2023-03-29T05:23:57.646Z,3.31
2023-03-29T05:26:24.361Z,3.24
2023-03-29T05:28:50.974Z,3.25
2023-03-29T05:31:17.776Z,3.26
2023-03-29T05:33:44.288Z,3.34
2023-03-29T05:36:13.527Z,3.33
2023-03-29T05:38:40.802Z,3.37
2023-03-29T05:41:07.366Z,3.41
2023-03-29T05:43:33.897Z,3.46
2023-03-29T05:46:00.379Z,3.51
2023-03-29T05:48:27.235Z,3.58
2023-03-29T05:50:54.552Z,3.62
2023-03-29T05:53:22.923Z,3.62
2023-03-29T05:55:49.666Z,3.60
2023-03-29T05:58:17.966Z,3.64
2023-03-29T06:00:44.560Z,3.72
2023-03-29T06:03:21.117Z,3.78
2023-03-29T06:05:49.833Z,3.89
2023-03-29T06:08:16.493Z,3.94
2023-03-29T06:10:42.980Z,3.97
2023-03-29T06:13:09.753Z,3.98
2023-03-29T06:15:36.980Z,4.03
2023-03-29T06:18:03.686Z,4.05
2023-03-29T06:20:30.807Z,4.10
2023-03-29T06:22:57.883Z,4.09
2023-03-29T06:25:24.957Z,4.12
2023-03-29T06:27:52.158Z,4.07
2023-03-29T06:30:19.253Z,4.00
2023-03-29T06:32:46.149Z,3.92
2023-03-29T06:35:12.926Z,4.04
2023-03-29T06:37:41.287Z,4.13
2023-03-29T06:40:09.363Z,4.12
2023-03-29T06:42:35.835Z,4.15
2023-03-29T06:45:02.603Z,4.30
2023-03-29T06:47:31.356Z,4.35
2023-03-29T06:49:57.872Z,4.52
2023-03-29T06:52:24.372Z,4.60
2023-03-29T06:54:50.841Z,4.51
2023-03-29T06:57:17.709Z,4.56
2023-03-29T06:59:44.324Z,4.60
2023-03-29T07:02:12.533Z,4.62
2023-03-29T07:04:39.549Z,4.53
2023-03-29T07:07:07.682Z,4.60
2023-03-29T07:09:35.871Z,4.61
2023-03-29T07:12:02.496Z,4.60
2023-03-29T07:14:29.968Z,4.74
2023-03-29T07:16:56.846Z,4.80
2023-03-29T07:19:25.248Z,4.85
2023-03-29T07:21:53.313Z,4.90
2023-03-29T07:24:20.815Z,4.97
2023-03-29T07:27:00.188Z,5.07
2023-03-29T07:29:30.529Z,5.12
2023-03-29T07:31:57.012Z,5.29
2023-03-29T07:34:24.331Z,5.33
2023-03-29T07:36:51.459Z,5.31
2023-03-29T07:39:17.969Z,5.40
2023-03-29T07:41:44.434Z,5.42
2023-03-29T07:44:10.959Z,5.48
2023-03-29T07:46:37.880Z,5.57
2023-03-29T07:49:04.419Z,5.69
2023-03-29T07:51:31.279Z,5.74
2023-03-29T07:53:57.825Z,5.73
2023-03-29T07:56:24.779Z,5.51
2023-03-29T07:58:51.734Z,5.63
2023-03-29T08:01:19.910Z,5.84
2023-03-29T08:03:46.651Z,5.85
2023-03-29T08:06:13.272Z,5.77
2023-03-29T08:08:39.787Z,5.70
2023-03-29T08:11:08.821Z,5.68
2023-03-29T08:13:35.312Z,5.66
2023-03-29T08:16:01.952Z,5.71
2023-03-29T08:18:28.415Z,5.81
2023-03-29T08:20:55.005Z,5.88
2023-03-29T08:23:21.491Z,6.16
2023-03-29T08:25:48.009Z,6.10
2023-03-29T08:28:14.477Z,6.00
2023-03-29T08:30:41.259Z,6.01
2023-03-29T08:33:07.829Z,6.03
2023-03-29T08:35:34.374Z,6.01
2023-03-29T08:38:01.063Z,5.97
2023-03-29T08:40:28.017Z,6.06
2023-03-29T08:43:14.767Z,6.08
2023-03-29T08:46:03.176Z,6.17
2023-03-29T08:48:42.520Z,6.12
2023-03-29T08:51:17.877Z,6.17
2023-03-29T08:53:47.090Z,6.15
2023-03-29T08:56:15.675Z,6.09
2023-03-29T08:58:42.625Z,6.01
2023-03-29T09:01:09.220Z,6.08
2023-03-29T09:03:40.442Z,6.11
2023-03-29T09:06:12.498Z,6.13
2023-03-29T09:08:49.359Z,6.34
2023-03-29T09:11:24.861Z,6.32
2023-03-29T09:14:01.982Z,6.29
2023-03-29T09:16:28.304Z,6.18
2023-03-29T09:19:03.925Z,6.35
2023-03-29T09:21:41.759Z,6.41
2023-03-29T09:24:10.446Z,6.43
2023-03-29T09:26:52.778Z,6.51
2023-03-29T09:29:48.715Z,6.57
2023-03-29T09:32:23.105Z,6.63
2023-03-29T09:34:56.949Z,6.70
2023-03-29T09:37:34.231Z,6.73
2023-03-29T09:40:01.216Z,6.80
2023-03-29T09:42:29.194Z,6.99
2023-03-29T09:45:03.348Z,7.15
2023-03-29T09:47:51.884Z,7.08
2023-03-29T09:50:31.419Z,7.21
2023-03-29T09:52:58.640Z,7.49
2023-03-29T09:55:27.747Z,7.54
2023-03-29T09:57:55.988Z,7.72
2023-03-29T10:00:22.484Z,7.67
2023-03-29T10:02:52.899Z,7.80
2023-03-29T10:05:19.921Z,7.77
2023-03-29T10:07:51.955Z,7.73
2023-03-29T10:10:23.689Z,7.91
2023-03-29T10:12:51.772Z,7.91
2023-03-29T10:15:29.136Z,7.95
2023-03-29T10:18:00.868Z,8.19
2023-03-29T10:20:27.486Z,8.29
2023-03-29T10:22:58.203Z,8.25
2023-03-29T10:25:29.687Z,8.22
2023-03-29T10:28:03.256Z,8.33
2023-03-29T10:30:29.795Z,8.33
2023-03-29T10:32:58.034Z,8.19
2023-03-29T10:35:38.271Z,8.57
2023-03-29T10:38:05.233Z,8.94
2023-03-29T10:40:33.377Z,9.01
2023-03-29T10:43:01.209Z,8.83
2023-03-29T10:45:33.871Z,8.85
2023-03-29T10:48:00.686Z,8.46
2023-03-29T10:50:33.594Z,8.47
2023-03-29T10:53:00.911Z,8.74
2023-03-29T10:55:35.070Z,8.71
2023-03-29T10:58:20.832Z,8.62
2023-03-29T11:00:52.565Z,8.60
2023-03-29T11:03:46.101Z,8.66
2023-03-29T11:06:22.181Z,8.66
2023-03-29T11:08:52.840Z,8.62
2023-03-29T11:11:32.980Z,8.66
2023-03-29T11:14:28.027Z,8.78
2023-03-29T11:17:07.504Z,8.73
2023-03-29T11:19:51.502Z,8.53
2023-03-29T11:22:27.320Z,8.64
2023-03-29T11:25:24.690Z,8.67
2023-03-29T11:27:56.417Z,8.69
2023-03-29T11:30:29.025Z,8.67
2023-03-29T11:33:37.522Z,8.66
2023-03-29T11:36:09.573Z,8.68
2023-03-29T11:38:39.762Z,8.81
2023-03-29T11:41:16.133Z,8.74
2023-03-29T11:43:55.068Z,8.71
2023-03-29T11:46:27.252Z,8.70
2023-03-29T11:49:25.201Z,8.60
2023-03-29T11:52:18.517Z,8.37
2023-03-29T11:55:03.758Z,8.20
2023-03-29T11:57:56.741Z,8.16
2023-03-29T12:00:27.346Z,8.17
2023-03-29T12:03:06.694Z,8.34
2023-03-29T12:05:40.014Z,8.32
2023-03-29T12:08:13.629Z,8.42
2023-03-29T12:10:45.403Z,8.25
2023-03-29T12:13:14.982Z,8.44
2023-03-29T12:15:43.232Z,8.50
2023-03-29T12:18:32.110Z,8.35
2023-03-29T12:21:03.374Z,8.29
2023-03-29T12:23:31.210Z,8.31
2023-03-29T12:26:12.161Z,8.39
2023-03-29T12:28:50.771Z,8.25
2023-03-29T12:31:32.547Z,8.11
2023-03-29T12:34:11.627Z,8.14
2023-03-29T12:36:50.162Z,8.29
2023-03-29T12:39:17.684Z,8.27
2023-03-29T12:41:48.805Z,8.38
2023-03-29T12:44:16.089Z,8.41
2023-03-29T12:46:42.931Z,8.35
2023-03-29T12:49:34.174Z,8.36
2023-03-29T12:52:02.344Z,8.40
2023-03-29T12:54:33.583Z,8.31
2023-03-29T12:57:20.323Z,8.42
2023-03-29T12:59:48.070Z,8.42
2023-03-29T13:02:14.498Z,8.43
2023-03-29T13:04:44.072Z,8.38
2023-03-29T13:07:45.457Z,8.35
2023-03-29T13:10:30.240Z,8.37
2023-03-29T13:12:57.735Z,8.29
2023-03-29T13:15:25.401Z,8.43
2023-03-29T13:18:23.455Z,8.35
2023-03-29T13:21:07.374Z,8.31
2023-03-29T13:24:01.870Z,8.35
2023-03-29T13:26:43.671Z,8.35
2023-03-29T13:29:17.498Z,8.39
2023-03-29T13:32:14.592Z,8.44
2023-03-29T13:34:46.383Z,8.55
2023-03-29T13:37:34.289Z,8.59
2023-03-29T13:40:00.741Z,8.61
2023-03-29T13:42:33.225Z,8.73
2023-03-29T13:45:29.828Z,8.92
2023-03-29T13:48:23.788Z,9.03
2023-03-29T13:51:13.542Z,9.10
2023-03-29T13:54:00.598Z,9.16
2023-03-29T13:56:32.949Z,9.21
2023-03-29T13:59:13.638Z,9.35
2023-03-29T14:01:49.211Z,9.39
2023-03-29T14:04:37.793Z,9.55
2023-03-29T14:07:04.306Z,9.59
2023-03-29T14:09:32.218Z,9.74
2023-03-29T14:11:59.536Z,9.86
2023-03-29T14:14:26.331Z,10.02
2023-03-29T14:16:52.995Z,10.01
2023-03-29T14:19:24.830Z,9.98
2023-03-29T14:21:52.643Z,9.89
2023-03-29T14:24:25.873Z,10.04
2023-03-29T14:26:52.486Z,10.14
2023-03-29T14:29:18.940Z,10.15
2023-03-29T14:31:45.575Z,10.22
2023-03-29T14:34:14.158Z,10.08
2023-03-29T14:36:41.006Z,10.21
2023-03-29T14:39:18.037Z,10.15
2023-03-29T14:41:50.039Z,10.15
2023-03-29T14:44:16.606Z,10.25
2023-03-29T14:46:43.330Z,10.38
2023-03-29T14:49:10.415Z,10.45
2023-03-29T14:51:40.397Z,10.38
2023-03-29T14:54:06.872Z,10.32
2023-03-29T14:56:33.536Z,10.32
2023-03-29T14:59:01.459Z,10.30
2023-03-29T15:01:28.049Z,10.30
2023-03-29T15:03:55.215Z,10.32
2023-03-29T15:06:22.703Z,10.28
2023-03-29T15:09:02.004Z,10.12
2023-03-29T15:11:31.591Z,10.28
2023-03-29T15:14:08.658Z,10.49
2023-03-29T15:16:38.719Z,10.58
2023-03-29T15:19:05.252Z,10.51
2023-03-29T15:21:33.218Z,10.58
2023-03-29T15:24:00.618Z,10.57
2023-03-29T15:26:32.025Z,10.51
2023-03-29T15:29:08.100Z,10.51
2023-03-29T15:31:37.069Z,10.49
2023-03-29T15:34:13.515Z,10.50
2023-03-29T15:36:45.022Z,10.40
2023-03-29T15:39:12.822Z,10.39
2023-03-29T15:41:39.845Z,10.35
2023-03-29T15:44:07.144Z,10.32
2023-03-29T15:46:33.746Z,10.25
2023-03-29T15:49:00.397Z,10.24
2023-03-29T15:51:26.878Z,10.29
2023-03-29T15:53:53.339Z,10.44
2023-03-29T15:56:20.360Z,10.62
2023-03-29T15:58:47.076Z,10.46
2023-03-29T16:01:37.356Z,10.30
2023-03-29T16:04:09.937Z,10.20
2023-03-29T16:06:36.691Z,10.14
2023-03-29T16:09:04.297Z,10.08
2023-03-29T16:11:30.863Z,10.06
2023-03-29T16:13:57.491Z,10.07
2023-03-29T16:16:24.386Z,10.08
2023-03-29T16:18:51.110Z,10.14
2023-03-29T16:21:18.365Z,10.24
2023-03-29T16:23:47.668Z,10.25
2023-03-29T16:26:14.983Z,10.24
2023-03-29T16:28:41.464Z,10.29
2023-03-29T16:31:10.390Z,10.26
2023-03-29T16:33:37.138Z,10.25
2023-03-29T16:36:04.296Z,10.23
2023-03-29T16:38:31.453Z,10.28
2023-03-29T16:40:58.561Z,10.32
2023-03-29T16:43:25.205Z,10.27
2023-03-29T16:45:52.050Z,10.44
2023-03-29T16:48:18.867Z,10.41
2023-03-29T16:50:49.436Z,10.47
2023-03-29T16:53:16.561Z,10.31
2023-03-29T16:55:43.073Z,10.05
2023-03-29T16:58:09.864Z,10.20
2023-03-29T17:00:36.551Z,10.16
2023-03-29T17:03:03.122Z,9.93
2023-03-29T17:05:29.641Z,9.73
2023-03-29T17:07:56.263Z,9.77
2023-03-29T17:10:23.024Z,9.63
2023-03-29T17:12:50.513Z,9.75
2023-03-29T17:15:17.711Z,9.68
2023-03-29T17:17:44.534Z,9.42
2023-03-29T17:20:14.317Z,9.47
2023-03-29T17:22:41.135Z,9.38
2023-03-29T17:25:08.126Z,9.20
2023-03-29T17:27:35.380Z,9.24
2023-03-29T17:30:02.438Z,9.10
2023-03-29T17:32:28.962Z,8.94
2023-03-29T17:34:55.586Z,8.75
2023-03-29T17:37:22.680Z,8.61
2023-03-29T17:39:49.150Z,8.65
2023-03-29T17:42:17.195Z,8.44
2023-03-29T17:44:44.054Z,8.64
2023-03-29T17:47:10.881Z,8.81
2023-03-29T17:49:37.846Z,8.70
2023-03-29T17:52:04.341Z,8.80
2023-03-29T17:54:34.117Z,8.80
2023-03-29T17:57:00.773Z,8.81
2023-03-29T17:59:27.271Z,8.84
2023-03-29T18:01:53.757Z,8.68
2023-03-29T18:04:20.616Z,8.62
2023-03-29T18:06:49.358Z,8.82
2023-03-29T18:09:16.949Z,8.76
2023-03-29T18:11:45.648Z,8.68
2023-03-29T18:14:12.171Z,8.70
2023-03-29T18:16:41.918Z,8.69
2023-03-29T18:19:10.865Z,8.57
2023-03-29T18:21:37.343Z,8.63
2023-03-29T18:24:03.923Z,8.79
2023-03-29T18:26:30.435Z,8.84
2023-03-29T18:28:57.585Z,9.01
2023-03-29T18:31:24.349Z,9.21
2023-03-29T18:33:50.865Z,9.31
2023-03-29T18:36:17.411Z,9.38
2023-03-29T18:38:44.260Z,9.48
2023-03-29T18:41:12.363Z,9.72
2023-03-29T18:43:39.753Z,9.72
2023-03-29T18:46:08.146Z,9.70
2023-03-29T18:48:39.646Z,9.66
2023-03-29T18:51:10.700Z,9.72
2023-03-29T18:53:37.685Z,9.77
2023-03-29T18:56:04.934Z,9.69
2023-03-29T18:58:32.530Z,9.81
2023-03-29T19:01:04.058Z,9.88
2023-03-29T19:03:31.694Z,9.85
2023-03-29T19:05:58.566Z,9.88
2023-03-29T19:08:26.256Z,9.90
2023-03-29T19:10:53.652Z,9.99
2023-03-29T19:13:20.502Z,9.94
2023-03-29T19:15:47.606Z,9.99
2023-03-29T19:18:14.436Z,10.01
2023-03-29T19:20:41.280Z,9.96
2023-03-29T19:23:08.263Z,9.93
2023-03-29T19:25:36.264Z,9.83
2023-03-29T19:28:04.838Z,9.83
2023-03-29T19:30:31.387Z,9.72
2023-03-29T19:32:57.944Z,9.75
2023-03-29T19:35:24.459Z,9.79
2023-03-29T19:37:51.424Z,9.70
2023-03-29T19:40:18.018Z,9.80
2023-03-29T19:42:44.570Z,9.80
2023-03-29T19:45:11.346Z,9.84
2023-03-29T19:47:40.026Z,9.84
2023-03-29T19:50:07.160Z,9.86
2023-03-29T19:52:33.910Z,9.84
2023-03-29T19:55:00.996Z,9.89
2023-03-29T19:57:28.192Z,9.86
2023-03-29T19:59:54.727Z,9.86
2023-03-29T20:02:21.190Z,9.99
2023-03-29T20:04:47.685Z,9.98
2023-03-29T20:07:14.505Z,9.93
2023-03-29T20:09:44.555Z,9.98
2023-03-29T20:12:11.976Z,9.90
2023-03-29T20:14:40.461Z,9.96
2023-03-29T20:17:07.256Z,10.01
2023-03-29T20:19:36.479Z,9.92
2023-03-29T20:22:03.794Z,10.06
2023-03-29T20:24:31.368Z,10.10
2023-03-29T20:26:57.846Z,10.15
2023-03-29T20:29:25.136Z,10.11
2023-03-29T20:31:51.954Z,10.16
2023-03-29T20:34:18.496Z,10.15
2023-03-29T20:36:46.911Z,10.12
2023-03-29T20:39:16.981Z,10.26
2023-03-29T20:41:47.510Z,10.30
2023-03-29T20:44:16.758Z,10.27
2023-03-29T20:46:54.211Z,10.26
2023-03-29T20:49:26.280Z,10.26
2023-03-29T20:51:58.557Z,10.26
2023-03-29T20:54:28.656Z,10.28
2023-03-29T20:56:55.971Z,10.24
2023-03-29T20:59:22.887Z,10.38
2023-03-29T21:01:50.556Z,10.30
2023-03-29T21:04:20.580Z,10.39
2023-03-29T21:06:49.694Z,10.41
2023-03-29T21:09:19.294Z,10.38
2023-03-29T21:11:45.808Z,10.40
2023-03-29T21:14:12.345Z,10.35
2023-03-29T21:16:41.748Z,10.40
2023-03-29T21:19:09.605Z,10.37
2023-03-29T21:21:36.130Z,10.32
2023-03-29T21:24:03.935Z,10.29
2023-03-29T21:26:30.893Z,10.30
2023-03-29T21:28:57.713Z,10.36
2023-03-29T21:31:24.264Z,10.31
2023-03-29T21:33:51.310Z,10.35
2023-03-29T21:36:18.278Z,10.29
2023-03-29T21:38:44.958Z,10.31
2023-03-29T21:41:12.154Z,10.25
2023-03-29T21:43:39.037Z,10.31
2023-03-29T21:46:06.338Z,10.33
2023-03-29T21:48:34.199Z,10.24
2023-03-29T21:51:01.668Z,10.27
2023-03-29T21:53:28.258Z,10.20
2023-03-29T21:55:56.951Z,10.03
2023-03-29T21:58:23.946Z,10.13
2023-03-29T22:00:50.904Z,10.06
2023-03-29T22:03:17.648Z,9.93
2023-03-29T22:05:55.167Z,9.86
2023-03-29T22:08:26.131Z,10.01
2023-03-29T22:10:55.458Z,9.92
2023-03-29T22:13:26.901Z,9.97
2023-03-29T22:16:06.063Z,9.94
2023-03-29T22:18:43.442Z,9.81
2023-03-29T22:21:15.164Z,9.70
2023-03-29T22:23:42.448Z,9.57
2023-03-29T22:26:09.536Z,9.58
2023-03-29T22:28:39.067Z,9.66
2023-03-29T22:31:07.525Z,9.51
2023-03-29T22:33:34.339Z,9.50
2023-03-29T22:36:02.120Z,9.49
2023-03-29T22:38:28.990Z,9.54
2023-03-29T22:40:55.836Z,9.60
2023-03-29T22:43:22.305Z,9.60
2023-03-29T22:45:49.150Z,9.43
2023-03-29T22:48:15.868Z,9.40
2023-03-29T22:50:45.957Z,9.50
2023-03-29T22:53:12.587Z,9.57
2023-03-29T22:55:39.076Z,9.73
2023-03-29T22:58:05.558Z,9.69
2023-03-29T23:00:32.100Z,9.70
2023-03-29T23:02:59.539Z,9.77
2023-03-29T23:05:26.102Z,9.92
2023-03-29T23:07:52.588Z,9.97
2023-03-29T23:10:19.458Z,9.96
2023-03-29T23:12:45.928Z,9.90
2023-03-29T23:15:13.883Z,9.99
2023-03-29T23:17:40.574Z,10.08
2023-03-29T23:20:09.069Z,9.89
2023-03-29T23:22:36.305Z,9.87
2023-03-29T23:25:03.145Z,9.82
2023-03-29T23:27:29.610Z,9.83
2023-03-29T23:29:56.283Z,9.91
2023-03-29T23:32:22.822Z,9.85
2023-03-29T23:34:49.300Z,9.81
2023-03-29T23:37:16.104Z,9.69
2023-03-29T23:39:42.603Z,9.80
2023-03-29T23:42:09.486Z,9.64
2023-03-29T23:44:36.288Z,9.53
2023-03-29T23:47:02.995Z,9.68
2023-03-29T23:49:31.784Z,9.61
2023-03-29T23:52:00.392Z,9.70
2023-03-29T23:54:27.448Z,9.77
2023-03-29T23:56:53.995Z,10.00
2023-03-29T23:59:22.664Z,9.77
